createdAt,value
2019-03-03T00:03:25.935Z,20.95
2019-03-03T00:08:29.684Z,20.94
2019-03-03T00:13:33.464Z,20.92
2019-03-03T00:18:37.277Z,20.92
2019-03-03T00:23:41.058Z,20.92
2019-03-03T00:28:44.822Z,20.92
2019-03-03T00:33:48.699Z,20.91
2019-03-03T00:39:09.694Z,20.88
2019-03-03T00:44:35.267Z,20.94
2019-03-03T00:49:56.859Z,20.90
2019-03-03T00:55:10.454Z,20.89
2019-03-03T01:00:54.938Z,20.92
2019-03-03T01:06:04.389Z,20.87
2019-03-03T01:11:27.147Z,20.87
2019-03-03T01:16:59.135Z,20.88
2019-03-03T01:22:11.876Z,20.85
2019-03-03T01:27:15.670Z,20.81
2019-03-03T01:32:19.439Z,20.82
2019-03-03T01:37:23.208Z,20.83
2019-03-03T01:42:27.033Z,20.89
2019-03-03T01:47:32.038Z,20.90
2019-03-03T01:52:35.813Z,20.87
2019-03-03T01:57:39.576Z,20.91
2019-03-03T02:02:43.355Z,20.91
2019-03-03T02:07:47.249Z,20.85
2019-03-03T02:12:51.038Z,20.81
2019-03-03T02:17:54.801Z,20.81
2019-03-03T02:22:58.549Z,20.81
2019-03-03T02:28:02.380Z,20.78
2019-03-03T02:33:06.230Z,20.77
2019-03-03T02:38:09.986Z,20.77
2019-03-03T02:43:13.787Z,20.76
2019-03-03T02:48:17.539Z,20.74
2019-03-03T02:53:21.311Z,20.72
2019-03-03T02:58:25.077Z,20.72
2019-03-03T03:03:29.599Z,20.72
2019-03-03T03:08:37.810Z,20.75
2019-03-03T03:14:19.024Z,20.75
2019-03-03T03:19:28.932Z,20.61
2019-03-03T03:24:58.168Z,20.67
2019-03-03T03:30:19.907Z,20.65
2019-03-03T03:35:41.420Z,20.67
2019-03-03T03:41:01.251Z,20.59
2019-03-03T03:46:29.861Z,20.67
2019-03-03T03:51:42.787Z,20.67
2019-03-03T03:57:09.436Z,20.66
2019-03-03T04:02:41.311Z,20.70
2019-03-03T04:08:04.075Z,20.66
2019-03-03T04:13:25.811Z,20.62
2019-03-03T04:18:47.424Z,20.69
2019-03-03T04:24:10.181Z,20.70
2019-03-03T04:29:23.607Z,20.70
2019-03-03T04:34:55.315Z,20.64
2019-03-03T04:40:05.624Z,20.66
2019-03-03T04:45:14.602Z,20.64
2019-03-03T04:50:29.789Z,20.64
2019-03-03T04:55:44.360Z,20.58
2019-03-03T05:00:58.610Z,20.59
2019-03-03T05:06:24.255Z,20.59
2019-03-03T05:12:24.901Z,20.63
2019-03-03T05:17:51.410Z,20.66
2019-03-03T05:22:55.240Z,20.62
2019-03-03T05:28:00.003Z,20.62
2019-03-03T05:33:03.843Z,20.64
2019-03-03T05:38:07.638Z,20.61
2019-03-03T05:43:11.550Z,20.59
2019-03-03T05:48:15.327Z,20.61
2019-03-03T05:53:19.102Z,20.61
2019-03-03T05:58:22.868Z,20.61
2019-03-03T06:03:26.824Z,20.60
2019-03-03T06:08:30.575Z,20.58
2019-03-03T06:13:34.374Z,20.56
2019-03-03T06:18:38.134Z,20.57
2019-03-03T06:23:41.983Z,20.56
2019-03-03T06:28:45.861Z,20.59
2019-03-03T06:33:49.722Z,20.54
2019-03-03T06:38:53.467Z,20.54
2019-03-03T06:43:57.234Z,20.48
2019-03-03T06:49:01.055Z,20.57
2019-03-03T06:54:04.974Z,20.67
2019-03-03T06:59:08.871Z,20.67
2019-03-03T07:04:12.730Z,20.64
2019-03-03T07:09:16.594Z,20.64
2019-03-03T07:14:20.369Z,20.52
2019-03-03T07:19:24.130Z,20.52
2019-03-03T07:24:28.031Z,20.56
2019-03-03T07:29:31.807Z,20.57
2019-03-03T07:34:35.553Z,20.57
2019-03-03T07:39:39.383Z,20.67
2019-03-03T07:44:43.202Z,20.54
2019-03-03T07:49:47.084Z,20.56
2019-03-03T07:54:50.839Z,20.56
2019-03-03T07:59:54.775Z,20.51
2019-03-03T08:04:58.739Z,20.39
2019-03-03T08:10:02.737Z,20.05
2019-03-03T08:15:09.785Z,20.03
2019-03-03T08:20:13.569Z,20.35
2019-03-03T08:25:17.486Z,20.58
2019-03-03T08:30:21.243Z,20.67
2019-03-03T08:35:25.077Z,20.52
2019-03-03T08:40:28.861Z,20.38
2019-03-03T08:45:50.178Z,20.34
2019-03-03T08:51:02.174Z,20.24
2019-03-03T08:56:28.781Z,20.24
2019-03-03T09:01:42.672Z,20.24
2019-03-03T09:06:57.902Z,20.10
2019-03-03T09:12:06.698Z,20.12
2019-03-03T09:17:28.617Z,20.08
2019-03-03T09:22:49.982Z,20.08
2019-03-03T09:28:11.415Z,20.14
2019-03-03T09:33:37.213Z,20.15
2019-03-03T09:38:51.648Z,20.15
2019-03-03T09:44:23.655Z,20.12
2019-03-03T09:49:46.445Z,20.17
2019-03-03T09:54:57.657Z,20.29
2019-03-03T10:00:23.536Z,20.41
2019-03-03T10:05:34.597Z,20.41
2019-03-03T10:10:47.523Z,20.34
2019-03-03T10:16:13.354Z,20.34
2019-03-03T10:21:24.483Z,20.29
2019-03-03T10:26:46.651Z,20.24
2019-03-03T10:32:08.409Z,20.24
2019-03-03T10:37:31.226Z,20.14
2019-03-03T10:43:12.302Z,20.24
2019-03-03T10:48:28.167Z,20.48
2019-03-03T10:53:50.925Z,20.34
2019-03-03T10:59:26.097Z,20.11
2019-03-03T11:04:38.700Z,20.27
2019-03-03T11:09:59.430Z,20.40
2019-03-03T11:15:22.277Z,20.40
2019-03-03T11:20:45.359Z,20.47
2019-03-03T11:26:02.182Z,20.47
2019-03-03T11:31:34.016Z,20.53
2019-03-03T11:36:45.173Z,20.58
2019-03-03T11:41:55.218Z,20.66
2019-03-03T11:47:21.779Z,20.83
2019-03-03T11:52:30.738Z,20.83
2019-03-03T11:57:49.928Z,20.65
2019-03-03T12:03:02.254Z,20.65
2019-03-03T12:08:27.771Z,20.71
2019-03-03T12:13:40.899Z,20.76
2019-03-03T12:19:12.816Z,20.65
2019-03-03T12:24:28.328Z,20.65
2019-03-03T12:30:03.306Z,20.64
2019-03-03T12:35:33.484Z,20.62
2019-03-03T12:40:48.160Z,20.61
2019-03-03T12:46:29.425Z,20.63
2019-03-03T12:51:54.989Z,20.62
2019-03-03T12:57:07.631Z,20.66
2019-03-03T13:02:37.108Z,20.61
2019-03-03T13:07:47.574Z,20.61
2019-03-03T13:13:10.405Z,20.63
2019-03-03T13:18:36.311Z,20.69
2019-03-03T13:34:00.301Z,20.63
2019-03-03T13:39:36.292Z,20.63
2019-03-03T13:44:40.066Z,20.66
2019-03-03T13:49:43.848Z,20.66
2019-03-03T14:04:48.944Z,20.57
2019-03-03T14:09:52.740Z,20.76
2019-03-03T14:14:56.678Z,20.66
2019-03-03T14:20:00.894Z,20.66
2019-03-03T14:25:05.183Z,20.61
2019-03-03T14:30:11.902Z,20.73
2019-03-03T14:35:16.388Z,20.65
2019-03-03T14:40:20.804Z,20.66
2019-03-03T14:45:24.583Z,20.64
2019-03-03T14:50:28.497Z,20.64
2019-03-03T14:55:32.277Z,20.65
2019-03-03T15:00:36.166Z,20.69
2019-03-03T15:05:40.036Z,20.69
2019-03-03T15:10:44.145Z,20.67
2019-03-03T15:15:47.931Z,20.74
2019-03-03T15:20:51.728Z,20.66
2019-03-03T15:25:55.487Z,20.66
2019-03-03T15:30:59.232Z,20.66
2019-03-03T15:36:03.270Z,20.64
2019-03-03T15:41:07.092Z,20.66
2019-03-03T15:46:10.980Z,20.65
2019-03-03T15:51:15.184Z,20.68
2019-03-03T15:56:18.930Z,20.68
2019-03-03T16:01:22.697Z,20.68
2019-03-03T16:06:26.458Z,20.68
2019-03-03T16:11:30.306Z,20.68
2019-03-03T16:16:34.231Z,20.79
2019-03-03T16:21:38.394Z,20.67
2019-03-03T16:26:42.178Z,20.73
2019-03-03T16:31:45.976Z,20.67
2019-03-03T16:36:50.100Z,20.67
2019-03-03T16:41:53.997Z,20.68
2019-03-03T16:46:57.832Z,20.69
2019-03-03T16:52:01.797Z,20.67
2019-03-03T16:57:05.588Z,20.69
2019-03-03T17:02:09.357Z,20.69
2019-03-03T17:07:13.170Z,21.14
2019-03-03T17:12:16.923Z,21.50
2019-03-03T17:17:21.957Z,21.83
2019-03-03T17:22:25.751Z,21.84
2019-03-03T17:27:29.509Z,21.84
2019-03-03T17:32:33.387Z,22.16
2019-03-03T17:42:47.508Z,22.25
2019-03-03T17:47:51.241Z,22.14
2019-03-03T17:52:55.022Z,22.18
2019-03-03T17:57:58.776Z,22.30
2019-03-03T18:03:02.668Z,22.30
2019-03-03T18:08:06.488Z,22.26
2019-03-03T18:13:10.292Z,22.19
2019-03-03T18:18:14.037Z,22.26
2019-03-03T18:23:17.820Z,22.38
2019-03-03T18:28:21.670Z,22.19
2019-03-03T18:33:25.510Z,22.38
2019-03-03T18:38:29.289Z,22.41
2019-03-03T18:43:33.167Z,22.37
2019-03-03T18:48:36.934Z,22.32
2019-03-03T18:53:40.895Z,22.37
2019-03-03T18:58:44.657Z,22.37
2019-03-03T19:03:48.450Z,22.41
2019-03-03T19:08:52.269Z,22.41
2019-03-03T19:13:56.007Z,22.46
2019-03-03T19:18:59.777Z,22.50
2019-03-03T19:24:03.538Z,22.42
2019-03-03T19:29:07.326Z,22.34
2019-03-03T19:34:11.180Z,22.34
2019-03-03T19:39:14.931Z,22.28
2019-03-03T19:44:18.776Z,22.32
2019-03-03T19:49:22.818Z,22.32
2019-03-03T19:54:26.552Z,22.32
2019-03-03T19:59:30.306Z,22.35
2019-03-03T20:04:34.062Z,22.46
2019-03-03T20:09:37.915Z,22.46
2019-03-03T20:14:41.757Z,22.32
2019-03-03T20:19:45.516Z,22.27
2019-03-03T20:24:49.267Z,22.22
2019-03-03T20:29:53.036Z,22.13
2019-03-03T20:34:56.797Z,22.05
2019-03-03T20:40:00.740Z,22.06
2019-03-03T20:45:04.914Z,22.04
2019-03-03T20:50:11.022Z,21.96
2019-03-03T20:55:15.985Z,21.90
2019-03-03T21:00:24.401Z,21.90
2019-03-03T21:05:28.265Z,21.86
2019-03-03T21:10:32.103Z,21.81
2019-03-03T21:15:35.850Z,21.73
2019-03-03T21:20:39.649Z,21.73
2019-03-03T21:25:43.417Z,21.61
2019-03-03T21:30:47.234Z,21.67
2019-03-03T21:35:51.017Z,21.52
2019-03-03T21:40:54.799Z,21.57
2019-03-03T21:45:58.558Z,21.48
2019-03-03T21:51:02.312Z,21.48
2019-03-03T21:56:06.108Z,21.45
2019-03-03T22:01:09.860Z,21.45
2019-03-03T22:06:13.610Z,21.40
2019-03-03T22:11:17.449Z,21.40
2019-03-03T22:16:21.202Z,21.42
2019-03-03T22:21:24.976Z,21.42
2019-03-03T22:26:28.860Z,21.44
2019-03-03T22:31:32.755Z,21.37
2019-03-03T22:36:36.657Z,21.39
2019-03-03T22:41:40.511Z,21.41
2019-03-03T22:46:44.269Z,21.37
2019-03-03T22:51:48.025Z,21.37
2019-03-03T22:56:51.793Z,21.35
2019-03-03T23:01:55.986Z,21.38
2019-03-03T23:07:22.581Z,21.44
2019-03-03T23:12:38.743Z,21.38
2019-03-03T23:18:27.319Z,21.38
2019-03-03T23:24:01.579Z,21.42
2019-03-03T23:29:05.374Z,21.36
2019-03-03T23:34:09.134Z,21.36
2019-03-03T23:39:12.991Z,21.41
2019-03-03T23:44:16.854Z,21.41
2019-03-03T23:49:20.609Z,21.39
2019-03-03T23:54:24.394Z,21.39
2019-03-03T23:59:28.148Z,21.39
